Aeroboteco Virtual Airlines! Uma nuvem a frente.



 INFORMAÇÕES METEOROLÓGICAS
METAR FOR LEBG
ADDS - METARS form results

(1503 UTC 22 March 2019)
Data provider http://aviationweather.gov/metar/data/
 
Forecast for: LEBG (BURGOS/VILLAFRIA, ES)
Text: TAF LEBG 221100Z 2212/2221 20006KT CAVOK
Forecast period: 1200 to 1500 UTC 22 March 2019
Forecast type: FROM: standard forecast or significant change
Winds: from the SSW (200 degrees) at 7 MPH (6 knots; 3.1 m/s)
Visibility: 6 or more miles 10+ km)
Ceiling: unknown
Clouds: missing
Weather: NSW  (no significant weather)
Text: BECMG 2215/2217 09008KT
Forecast period: 1500 to 2100 UTC 22 March 2019
Forecast type: BECOMING: Conditions expected to become as follows by 1700 UTC 22 March 2019
Winds: from the E (90 degrees) at 9 MPH (8 knots; 4.1 m/s)
Visibility: 6 or more miles 10+ km)
Ceiling: unknown
Clouds: missing
Weather: NSW  (no significant weather)

 MAPA DO AEROPORTO

 INFORMAÇÕES DA PISTA
Pista 06 Tamanho da pista 4393 ft Largura da pista 98 ft
Elevação da pista 2907 ft Ranhura da pista 0 ft Proa da pista 56
Pista 24 Tamanho da pista 4393 ft Largura da pista 98 ft
Elevação da pista 2945 ft Ranhura da pista 0 ft Proa da pista 236

 FREQUÊNCIAS DO AEROPORTO
Tipo UNIC Nome UNIC Frequência 122.4 MHZ

 AUXÍLIOS DE NAVEGAÇÃO PRÓXIMOS AO AEROPORTO
Tipo NDB Nome Burgos Frequência 357 KHZ
Tipo VOR-DME Nome Burgos Frequência 111400 KHZ